Time;durP1;ratioP1;P1;durP2;ratioP2;P2;SDS_P1;SDS_P2;PMS_P1;PMS_P2;Temp;Humidity;BMP_temperature;BMP_pressure;BME280_temperature;BME280_humidity;BME280_pressure;Samples;Min_cycle;Max_cycle;Signal;HPM_P1;HPM_P2
2022/04/11 00:00:15;;;;;;;3.00;1.80;;;-1.00;99.50;;;;;;19851666;29;20055;-51
2022/04/11 00:10:18;;;;;;;4.43;1.75;;;-1.00;99.80;;;;;;19837798;29;20042;-56
2022/04/11 00:20:20;;;;;;;5.20;2.50;;;-1.00;99.90;;;;;;19858709;29;20071;-55
2022/04/11 00:30:23;;;;;;;2.72;1.50;;;-1.20;99.90;;;;;;19831273;29;20104;-51
2022/04/11 00:40:26;;;;;;;3.67;1.85;;;-1.30;99.90;;;;;;19873892;29;20074;-50
2022/04/11 00:50:30;;;;;;;3.80;2.17;;;-1.30;99.90;;;;;;19836046;29;20202;-53
2022/04/11 01:00:34;;;;;;;3.13;1.55;;;-1.30;99.90;;;;;;19829901;29;20047;-50
2022/04/11 01:10:36;;;;;;;3.20;1.55;;;-1.30;99.90;;;;;;19807014;29;20552;-51
2022/04/11 01:20:39;;;;;;;4.07;2.20;;;-1.40;99.90;;;;;;19835873;29;20068;-53
2022/04/11 01:30:44;;;;;;;4.47;1.77;;;-1.40;99.90;;;;;;19816891;29;20043;-52
2022/04/11 01:40:51;;;;;;;3.00;1.67;;;-1.30;99.90;;;;;;19849094;29;20460;-50
2022/04/11 01:50:54;;;;;;;3.88;1.65;;;-1.30;99.90;;;;;;19836914;29;20142;-55
2022/04/11 02:00:58;;;;;;;2.75;1.67;;;-1.10;99.90;;;;;;19841485;29;20584;-55
2022/04/11 02:11:01;;;;;;;3.70;1.63;;;-1.00;99.90;;;;;;19834720;29;20047;-52
2022/04/11 02:21:05;;;;;;;2.92;1.50;;;-0.80;99.90;;;;;;19812087;29;20497;-59
2022/04/11 02:31:09;;;;;;;3.03;1.67;;;-0.40;99.90;;;;;;19838275;29;20188;-53
2022/04/11 02:41:11;;;;;;;3.72;1.42;;;-0.30;99.90;;;;;;19855388;29;20450;-56
2022/04/11 02:51:20;;;;;;;2.17;1.10;;;-0.30;99.70;;;;;;19826421;29;20035;-48
2022/04/11 03:01:28;;;;;;;2.88;1.10;;;-0.30;99.70;;;;;;19860566;29;20111;-50
2022/04/11 03:11:31;;;;;;;2.42;1.35;;;-0.30;99.80;;;;;;19857248;29;20035;-56
2022/04/11 03:21:34;;;;;;;3.10;1.27;;;-0.40;99.50;;;;;;19860655;29;20039;-50
2022/04/11 03:31:46;;;;;;;2.08;1.23;;;-0.30;98.90;;;;;;19803360;29;20055;-56
2022/04/11 03:41:49;;;;;;;2.42;1.10;;;0.00;98.30;;;;;;19810294;29;20044;-50
2022/04/11 03:51:57;;;;;;;2.35;1.30;;;-0.20;97.60;;;;;;19802777;29;20066;-51
2022/04/11 04:02:00;;;;;;;2.40;1.30;;;-0.30;97.40;;;;;;19802036;29;20063;-51
2022/04/11 04:12:04;;;;;;;2.90;1.40;;;-0.30;97.80;;;;;;19829478;29;20070;-54
2022/04/11 04:22:16;;;;;;;2.83;1.42;;;-0.30;97.30;;;;;;19854720;29;20100;-50
2022/04/11 04:32:22;;;;;;;3.38;1.23;;;-0.30;98.00;;;;;;19800255;29;20128;-54
2022/04/11 04:42:26;;;;;;;3.75;1.40;;;-0.40;98.00;;;;;;19872305;29;20100;-55
2022/04/11 04:52:36;;;;;;;2.30;1.17;;;-0.40;97.40;;;;;;19784066;29;20043;-49
2022/04/11 05:02:40;;;;;;;2.42;1.13;;;-0.50;98.10;;;;;;19810510;29;20039;-50
2022/04/11 05:12:49;;;;;;;2.15;1.20;;;-0.70;98.10;;;;;;19820388;29;20039;-55
2022/04/11 05:22:53;;;;;;;4.18;1.27;;;-0.70;97.70;;;;;;19843194;29;20112;-49
2022/04/11 05:32:57;;;;;;;1.88;1.05;;;-0.80;97.70;;;;;;19840629;29;20051;-50
2022/04/11 05:43:01;;;;;;;1.88;0.77;;;-0.80;97.00;;;;;;19868677;29;20061;-50
2022/04/11 05:53:04;;;;;;;1.70;0.65;;;-0.40;95.90;;;;;;19873417;29;20448;-51
2022/04/11 06:03:07;;;;;;;1.17;0.52;;;0.10;94.90;;;;;;19818128;29;20047;-51
2022/04/11 06:13:09;;;;;;;1.40;0.70;;;0.50;93.60;;;;;;19809949;29;20043;-50
2022/04/11 06:23:13;;;;;;;3.88;0.60;;;1.00;93.70;;;;;;19830406;29;20095;-55
2022/04/11 06:33:16;;;;;;;1.63;0.90;;;1.20;90.40;;;;;;19851256;29;20050;-55
2022/04/11 06:43:22;;;;;;;2.00;0.80;;;1.40;89.50;;;;;;19881351;29;20399;-51
2022/04/11 06:53:37;;;;;;;0.80;0.60;;;3.20;86.70;;;;;;19860994;29;20054;-54
2022/04/11 07:03:40;;;;;;;1.17;0.60;;;5.00;82.40;;;;;;19808145;29;20047;-52
2022/04/11 07:13:42;;;;;;;0.82;0.50;;;6.60;79.60;;;;;;19869583;29;20150;-55
2022/04/11 07:23:45;;;;;;;0.52;0.30;;;7.40;73.60;;;;;;19801720;29;20069;-55
2022/04/11 07:33:49;;;;;;;1.13;0.38;;;8.10;71.90;;;;;;19813693;29;20452;-57
2022/04/11 07:43:54;;;;;;;1.55;0.60;;;8.50;69.40;;;;;;19878085;29;20043;-57
2022/04/11 07:53:57;;;;;;;1.13;0.60;;;9.00;68.70;;;;;;19804403;29;20112;-56
2022/04/11 08:03:59;;;;;;;1.33;0.85;;;9.20;67.00;;;;;;19821148;29;20092;-57
2022/04/11 08:14:02;;;;;;;4.63;0.80;;;9.40;68.90;;;;;;19820704;29;20108;-56
2022/04/11 08:24:05;;;;;;;1.70;0.63;;;9.80;68.30;;;;;;19800842;29;20364;-56
2022/04/11 08:34:08;;;;;;;1.52;0.80;;;10.00;69.60;;;;;;19833728;29;20097;-56
2022/04/11 08:44:13;;;;;;;1.33;0.90;;;10.60;65.20;;;;;;19799802;29;20047;-56
2022/04/11 08:54:17;;;;;;;3.55;0.70;;;10.70;65.10;;;;;;19818097;29;20075;-56
2022/04/11 09:04:19;;;;;;;1.63;0.90;;;10.90;69.00;;;;;;19846209;29;20114;-57
2022/04/11 09:14:27;;;;;;;2.35;1.17;;;11.30;67.50;;;;;;19814495;29;20047;-56
2022/04/11 09:24:31;;;;;;;2.25;1.17;;;11.20;65.90;;;;;;19871275;29;20062;-56
2022/04/11 09:34:34;;;;;;;2.53;1.35;;;11.10;71.00;;;;;;19799499;29;20108;-57
2022/04/11 09:44:36;;;;;;;2.83;1.30;;;11.20;65.40;;;;;;19854728;29;20055;-57
2022/04/11 09:54:42;;;;;;;2.97;1.58;;;11.50;68.90;;;;;;19862597;29;20123;-57
2022/04/11 10:04:46;;;;;;;3.30;1.70;;;11.70;70.40;;;;;;19847682;29;20104;-56
2022/04/11 10:14:50;;;;;;;3.30;1.80;;;11.90;70.00;;;;;;19853552;29;20116;-56
2022/04/11 10:25:06;;;;;;;3.08;1.92;;;12.10;71.00;;;;;;19852822;29;20600;-56
2022/04/11 10:35:09;;;;;;;2.25;1.58;;;12.40;67.70;;;;;;19852463;29;20074;-55
2022/04/11 10:45:34;;;;;;;3.55;2.00;;;12.70;72.10;;;;;;19808046;29;20388;-57
2022/04/11 10:55:57;;;;;;;4.28;2.35;;;12.50;68.20;;;;;;19833301;29;20143;-56
2022/04/11 11:06:19;;;;;;;3.80;2.03;;;12.40;69.90;;;;;;19869598;29;20560;-54
2022/04/11 11:16:21;;;;;;;5.00;2.50;;;12.90;69.80;;;;;;19857769;29;20035;-55
2022/04/11 11:26:26;;;;;;;3.85;2.63;;;13.20;72.30;;;;;;19851273;29;20035;-56
2022/04/11 11:36:30;;;;;;;5.97;3.17;;;13.20;69.80;;;;;;19804181;29;20047;-57
2022/04/11 11:47:03;;;;;;;6.60;3.15;;;13.20;72.90;;;;;;19864034;29;20456;-56
2022/04/11 11:57:19;;;;;;;6.93;3.28;;;13.10;75.80;;;;;;19850643;29;20071;-57
2022/04/11 12:07:23;;;;;;;6.57;3.53;;;13.10;72.00;;;;;;19805527;29;20047;-57
2022/04/11 12:17:47;;;;;;;5.93;3.63;;;13.40;71.80;;;;;;19850802;29;20488;-57
2022/04/11 12:27:50;;;;;;;6.88;3.78;;;13.30;73.70;;;;;;19839074;29;20047;-57
2022/04/11 12:37:56;;;;;;;5.97;3.22;;;13.80;70.30;;;;;;19799323;29;20229;-58
2022/04/11 12:48:07;;;;;;;5.63;3.13;;;13.70;73.30;;;;;;19852405;29;20072;-57
2022/04/11 12:58:11;;;;;;;7.03;3.53;;;13.70;72.10;;;;;;19873753;29;20054;-57
2022/04/11 13:08:14;;;;;;;6.05;3.55;;;13.70;72.30;;;;;;19873515;29;20143;-57
2022/04/11 13:18:26;;;;;;;6.43;3.33;;;13.70;70.10;;;;;;19867333;29;20081;-57
2022/04/11 13:28:29;;;;;;;8.85;3.65;;;13.30;69.40;;;;;;19817275;29;20107;-57
2022/04/11 13:38:31;;;;;;;7.10;3.80;;;13.30;71.70;;;;;;19797529;29;20051;-57
2022/04/11 13:48:34;;;;;;;5.43;3.47;;;13.50;70.40;;;;;;19803680;29;20069;-57
2022/04/11 13:58:37;;;;;;;5.53;3.75;;;13.40;70.80;;;;;;19871169;29;20078;-57
2022/04/11 14:08:40;;;;;;;4.90;3.38;;;13.50;67.10;;;;;;19869906;29;20039;-57
2022/04/11 14:18:43;;;;;;;8.27;4.30;;;13.20;69.00;;;;;;19882419;29;20094;-57
2022/04/11 14:28:48;;;;;;;7.05;4.32;;;13.60;68.80;;;;;;19807759;29;20081;-57
2022/04/11 14:38:50;;;;;;;9.98;4.20;;;13.50;69.30;;;;;;19876792;29;20138;-57
2022/04/11 14:48:53;;;;;;;6.75;4.05;;;13.60;69.70;;;;;;19883327;29;20046;-57
2022/04/11 14:58:57;;;;;;;6.55;3.72;;;13.10;67.50;;;;;;19880244;29;20059;-56
2022/04/11 15:08:59;;;;;;;5.68;3.80;;;12.30;68.00;;;;;;19819479;29;20108;-55
2022/04/11 15:19:02;;;;;;;6.75;3.78;;;11.80;67.90;;;;;;19839494;29;20039;-57
2022/04/11 15:29:06;;;;;;;4.38;2.70;;;11.20;69.30;;;;;;19827653;29;20043;-57
2022/04/11 15:39:08;;;;;;;4.88;3.22;;;10.90;67.40;;;;;;19826946;29;20043;-50
2022/04/11 15:49:11;;;;;;;5.10;3.20;;;10.50;68.00;;;;;;19877391;29;20043;-48
2022/04/11 15:59:15;;;;;;;6.35;3.55;;;10.30;68.20;;;;;;19876967;29;20062;-48
2022/04/11 16:09:17;;;;;;;5.82;3.42;;;10.00;69.00;;;;;;19876265;29;20042;-51
2022/04/11 16:19:21;;;;;;;6.32;3.80;;;9.60;71.20;;;;;;19842168;29;20510;-50
2022/04/11 16:29:24;;;;;;;5.90;3.53;;;9.00;71.70;;;;;;19802306;29;20492;-48
2022/04/11 16:39:26;;;;;;;7.80;4.18;;;8.40;73.40;;;;;;19799749;29;20179;-52
2022/04/11 16:49:29;;;;;;;7.20;3.78;;;7.90;74.80;;;;;;19812177;29;20042;-56
2022/04/11 16:59:32;;;;;;;6.55;3.70;;;7.50;76.40;;;;;;19873461;29;20086;-51
2022/04/11 17:09:35;;;;;;;6.70;3.97;;;7.10;78.50;;;;;;19817678;29;20035;-57
2022/04/11 17:19:38;;;;;;;8.25;4.50;;;6.70;79.10;;;;;;19798557;29;20356;-47
2022/04/11 17:29:41;;;;;;;8.90;4.15;;;6.40;80.10;;;;;;19814348;29;20389;-56
2022/04/11 17:39:43;;;;;;;8.00;3.65;;;6.10;81.10;;;;;;19886412;29;20043;-56
2022/04/11 17:49:46;;;;;;;7.10;3.95;;;5.90;82.60;;;;;;19812120;29;20118;-56
2022/04/11 17:59:49;;;;;;;7.07;4.18;;;5.60;83.40;;;;;;19810713;29;20100;-52
2022/04/11 18:09:52;;;;;;;8.52;4.20;;;5.10;85.60;;;;;;19810469;29;20047;-56
2022/04/11 18:19:55;;;;;;;9.43;4.82;;;4.90;86.80;;;;;;19809982;29;20043;-48
2022/04/11 18:40:18;;;;;;;9.55;4.78;;;4.60;89.50;;;;;;19882998;29;20494;-51
2022/04/11 18:50:21;;;;;;;7.10;3.95;;;4.50;89.80;;;;;;19882256;29;20042;-56
2022/04/11 19:00:24;;;;;;;8.20;4.00;;;4.30;90.00;;;;;;19881303;29;20055;-56
2022/04/11 19:10:27;;;;;;;8.75;4.32;;;4.00;90.20;;;;;;19816608;29;20072;-48
2022/04/11 19:20:29;;;;;;;7.80;4.18;;;3.90;90.30;;;;;;19813811;29;20071;-49
2022/04/11 19:30:32;;;;;;;7.38;4.07;;;3.90;90.20;;;;;;19804829;29;20043;-48
2022/04/11 19:40:35;;;;;;;8.25;4.03;;;3.90;90.50;;;;;;19804122;29;20039;-50
2022/04/11 19:50:38;;;;;;;10.38;4.72;;;3.70;90.80;;;;;;19802304;29;20071;-54
2022/04/11 20:00:41;;;;;;;10.23;4.05;;;3.60;91.40;;;;;;19868294;29;20086;-49
2022/04/11 20:10:44;;;;;;;13.23;5.10;;;3.30;91.80;;;;;;19860085;29;20139;-56
2022/04/11 20:20:47;;;;;;;8.88;4.63;;;3.20;92.40;;;;;;19844501;29;20517;-50
2022/04/11 20:30:49;;;;;;;8.55;4.22;;;3.00;93.00;;;;;;19826436;29;20397;-49
2022/04/11 20:40:52;;;;;;;9.10;4.55;;;2.90;93.60;;;;;;19829858;29;20047;-52
2022/04/11 20:50:54;;;;;;;10.30;5.03;;;3.10;93.20;;;;;;19830418;29;20051;-48
2022/04/11 21:00:58;;;;;;;9.00;4.93;;;3.20;93.60;;;;;;19798220;29;20055;-48
2022/04/11 21:11:00;;;;;;;9.88;5.47;;;3.20;94.40;;;;;;19798847;29;20457;-47
2022/04/11 21:21:03;;;;;;;11.35;5.60;;;3.20;95.20;;;;;;19798649;29;20039;-55
2022/04/11 21:31:05;;;;;;;9.40;5.00;;;3.20;95.40;;;;;;19804428;29;20046;-48
2022/04/11 21:41:08;;;;;;;9.48;5.30;;;3.00;96.10;;;;;;19840848;29;20080;-48
2022/04/11 21:51:11;;;;;;;12.30;5.40;;;2.70;97.00;;;;;;19783416;29;20039;-53
2022/04/11 22:01:13;;;;;;;12.25;4.82;;;2.40;97.80;;;;;;19837825;29;20043;-55
2022/04/11 22:11:16;;;;;;;8.88;5.28;;;2.80;97.10;;;;;;19808181;29;20124;-49
2022/04/11 22:21:19;;;;;;;12.23;4.93;;;2.90;97.90;;;;;;19809430;29;20132;-51
2022/04/11 22:31:23;;;;;;;10.15;5.20;;;2.40;99.00;;;;;;19808764;29;20039;-55
2022/04/11 22:41:27;;;;;;;12.05;6.07;;;2.10;99.90;;;;;;19816042;29;20062;-55
2022/04/11 22:51:30;;;;;;;8.88;5.22;;;1.80;99.90;;;;;;19868158;29;20046;-56
2022/04/11 23:01:32;;;;;;;13.57;6.03;;;2.20;99.90;;;;;;19809012;29;20063;-50
2022/04/11 23:11:37;;;;;;;10.18;5.72;;;2.00;99.90;;;;;;19856430;29;20135;-49
2022/04/11 23:21:39;;;;;;;12.38;5.97;;;1.50;99.90;;;;;;19855352;29;20502;-51
2022/04/11 23:31:42;;;;;;;11.80;6.13;;;1.40;99.90;;;;;;19855499;29;20520;-49
2022/04/11 23:41:44;;;;;;;11.30;5.90;;;1.60;99.90;;;;;;19856246;29;20070;-49
2022/04/11 23:51:47;;;;;;;11.02;6.20;;;1.50;99.90;;;;;;19824362;29;20039;-54
